UTDDUTST

Guest
Details From UTDD - DUSHANBE
To UTST - TERMEZ
Flight Number -
Tags generated
Created
Modified
Stats Distance 104 nm / 193 km
Max Altitude 200 ft / 61 m
Waypoints 3
Social Downloads 0
Likes 0
Share VATSIM

Download

Looking for another format? Having issues loading an existing format? Contact us
Advertisement - Login to hide

Notes

Basic altitude profile: - Ascent Rate: 2500ft/min - Ascent Speed: 250kts - Cruise Altitude: 35000ft - Cruise Speed: 420kts - Descent Rate: 1500ft/min - Descent Speed: 250kts Options: - Use NATs: yes - Use PACOTS: yes - Use low airways: yes - Use high airways: yes

Route

UTDD DNB UTST

ID Type Via Altitude Latitude Longitude Leg Dist Tot Dist Heading (true) Name
O UTDD APT - 0 ft / 0 m 38.54349˚ 68.82464˚ - 0 nm - DUSHANBE
DNB VOR - 200 ft / 61 m 38.54167˚ 68.81167˚ 0 nm 0 nm 260° / 260° DUSHANBE VOR-DME
O UTST APT - 0 ft / 0 m 37.28667˚ 67.30917˚ 103 nm 104 nm 224° / 223° TERMEZ

Altitude Profile

Advertisement - Login to hide

UTDD

Details ICAO UTDD (DYU)
Name DUSHANBE
Region Tajikistan, Turkmenistan and Uzbekistan
Timezone Asia/Dushanbe (UTC+5.0)
Stats Elevation 2,575 ft / 785 m (AMSL)
Location 38.543486° 68.824637°
Runways 1
Magnetic Variation 4.445° E

METAR

UTDD 140230Z 00000MPS 3200 BR FU NSC M03/M05 Q1024 R09/D NOSIG RMK QFE699/0932

Decode

TAF

TAF TAF UTDD 140000Z 1401/1413 VRB02MPS 3000 BR FU FEW066 SCT130 TEMPO 1401/1403 1000 BR FU

Decode

Departure Runways

ID Width Length Bearing (true) Bearing (mag) Surface Threshold Offset Overrun Length
09 147 ft / 45 m 10,157 ft / 3,096 m 90.06° 85.62° Asphalt 0 ft / 0 m 0 ft / 0 m
27 147 ft / 45 m 10,157 ft / 3,096 m 270.08° 265.64° Asphalt 1,335 ft / 407 m 0 ft / 0 m

UTST

Details ICAO UTST (TMJ)
Name TERMEZ
Region Tajikistan, Turkmenistan and Uzbekistan
Timezone Asia/Samarkand (UTC+5.0)
Stats Elevation 1,027 ft / 313 m (AMSL)
Location 37.286667° 67.309167°
Runways 1
Magnetic Variation 4.145° E

METAR

UTST 140200Z 24006KT 5000 BR NSC M07/M09 Q1027 R88/CLRD70 NOSIG

Decode

TAF

TAF UTST 132300Z 1400/1424 24006G16KT 5000 BR NSC TEMPO 1400/1405 0200 FZFG VV001 TEMPO 1405/1412 SCT015 SCT050CB BKN100

Decode

Destination Runways

ID Width Length Bearing (true) Bearing (mag) Surface Threshold Offset Overrun Length
07 138 ft / 42 m 9,510 ft / 2,899 m 75.17° 71.03° Concrete 0 ft / 0 m 164 ft / 50 m
25 138 ft / 42 m 9,510 ft / 2,899 m 255.19° 251.05° Concrete 0 ft / 0 m 164 ft / 50 m

Approach Navaids

Runway Type Ident Frequency Range Bearing (true) Bearing (mag) Slope Elevation
25 Localiser INO 110.30 MHz 18 nm / 33 km 254.33° 250.19° - 1,027 ft / 313 m (AMSL)
25 Glidescope INO 110.30 MHz 10 nm / 19 km 255.18° 251.03° 2.40° 1,027 ft / 313 m (AMSL)